sensor_id;sensor_type;location;lat;lon;timestamp;temperature;humidity
5059;DHT22;2548;52.050;11.036;2023-12-20T00:00:02;6.40;99.90
5059;DHT22;2548;52.050;11.036;2023-12-20T00:02:33;6.40;99.90
5059;DHT22;2548;52.050;11.036;2023-12-20T00:05:03;6.40;99.90
5059;DHT22;2548;52.050;11.036;2023-12-20T00:07:30;6.40;99.90
5059;DHT22;2548;52.050;11.036;2023-12-20T00:10:11;6.40;99.90
5059;DHT22;2548;52.050;11.036;2023-12-20T00:12:39;6.40;99.90
5059;DHT22;2548;52.050;11.036;2023-12-20T00:15:16;6.40;99.90
5059;DHT22;2548;52.050;11.036;2023-12-20T00:17:43;6.40;99.90
5059;DHT22;2548;52.050;11.036;2023-12-20T00:20:35;6.40;99.90
5059;DHT22;2548;52.050;11.036;2023-12-20T00:23:05;6.40;99.90
5059;DHT22;2548;52.050;11.036;2023-12-20T00:25:35;6.50;99.90
5059;DHT22;2548;52.050;11.036;2023-12-20T00:28:03;6.40;99.90
5059;DHT22;2548;52.050;11.036;2023-12-20T00:30:38;6.50;99.90
5059;DHT22;2548;52.050;11.036;2023-12-20T00:33:05;6.50;99.90
5059;DHT22;2548;52.050;11.036;2023-12-20T00:35:35;6.40;99.90
5059;DHT22;2548;52.050;11.036;2023-12-20T00:38:03;6.50;99.90
5059;DHT22;2548;52.050;11.036;2023-12-20T00:40:41;6.50;99.90
5059;DHT22;2548;52.050;11.036;2023-12-20T00:43:09;6.50;99.90
5059;DHT22;2548;52.050;11.036;2023-12-20T00:45:42;6.60;99.90
5059;DHT22;2548;52.050;11.036;2023-12-20T00:48:15;6.60;99.90
5059;DHT22;2548;52.050;11.036;2023-12-20T00:50:45;6.60;99.90
5059;DHT22;2548;52.050;11.036;2023-12-20T00:53:15;6.60;99.90
5059;DHT22;2548;52.050;11.036;2023-12-20T00:55:45;6.60;99.90
5059;DHT22;2548;52.050;11.036;2023-12-20T00:58:15;6.60;99.90
5059;DHT22;2548;52.050;11.036;2023-12-20T01:00:43;6.60;99.90
5059;DHT22;2548;52.050;11.036;2023-12-20T01:03:14;6.60;99.90
5059;DHT22;2548;52.050;11.036;2023-12-20T01:05:49;6.60;99.90
5059;DHT22;2548;52.050;11.036;2023-12-20T01:08:30;6.60;99.90
5059;DHT22;2548;52.050;11.036;2023-12-20T01:11:03;6.60;99.90
5059;DHT22;2548;52.050;11.036;2023-12-20T01:13:34;6.60;99.90
5059;DHT22;2548;52.050;11.036;2023-12-20T01:16:05;6.60;99.90
5059;DHT22;2548;52.050;11.036;2023-12-20T01:18:33;6.60;99.90
5059;DHT22;2548;52.050;11.036;2023-12-20T01:21:09;6.70;99.90
5059;DHT22;2548;52.050;11.036;2023-12-20T01:23:36;6.60;99.90
5059;DHT22;2548;52.050;11.036;2023-12-20T01:26:05;6.70;99.90
5059;DHT22;2548;52.050;11.036;2023-12-20T01:28:33;6.70;99.90
5059;DHT22;2548;52.050;11.036;2023-12-20T01:31:03;6.70;99.90
5059;DHT22;2548;52.050;11.036;2023-12-20T01:33:36;6.70;99.90
5059;DHT22;2548;52.050;11.036;2023-12-20T01:36:12;6.70;99.90
5059;DHT22;2548;52.050;11.036;2023-12-20T01:38:43;6.70;99.90
5059;DHT22;2548;52.050;11.036;2023-12-20T01:41:18;6.70;99.90
5059;DHT22;2548;52.050;11.036;2023-12-20T01:43:45;6.70;99.90
5059;DHT22;2548;52.050;11.036;2023-12-20T01:46:20;6.70;99.90
5059;DHT22;2548;52.050;11.036;2023-12-20T01:48:54;6.60;99.90
5059;DHT22;2548;52.050;11.036;2023-12-20T01:51:25;6.50;99.90
5059;DHT22;2548;52.050;11.036;2023-12-20T01:54:02;6.50;99.90
5059;DHT22;2548;52.050;11.036;2023-12-20T01:56:32;6.40;99.90
5059;DHT22;2548;52.050;11.036;2023-12-20T01:59:00;6.40;99.90
5059;DHT22;2548;52.050;11.036;2023-12-20T02:01:37;6.30;99.90
5059;DHT22;2548;52.050;11.036;2023-12-20T02:04:05;6.30;99.90
5059;DHT22;2548;52.050;11.036;2023-12-20T02:06:34;6.20;99.90
5059;DHT22;2548;52.050;11.036;2023-12-20T02:09:01;6.20;99.90
5059;DHT22;2548;52.050;11.036;2023-12-20T02:11:33;6.20;99.90
5059;DHT22;2548;52.050;11.036;2023-12-20T02:14:01;6.20;99.90
5059;DHT22;2548;52.050;11.036;2023-12-20T02:16:35;6.10;99.90
5059;DHT22;2548;52.050;11.036;2023-12-20T02:19:04;6.10;99.90
5059;DHT22;2548;52.050;11.036;2023-12-20T02:21:34;6.10;99.90
5059;DHT22;2548;52.050;11.036;2023-12-20T02:24:02;6.20;99.90
5059;DHT22;2548;52.050;11.036;2023-12-20T02:26:29;6.20;99.90
5059;DHT22;2548;52.050;11.036;2023-12-20T02:28:57;6.20;99.90
5059;DHT22;2548;52.050;11.036;2023-12-20T02:31:25;6.20;99.90
5059;DHT22;2548;52.050;11.036;2023-12-20T02:34:01;6.20;99.90
5059;DHT22;2548;52.050;11.036;2023-12-20T02:36:43;6.20;99.90
5059;DHT22;2548;52.050;11.036;2023-12-20T02:39:14;6.20;99.90
5059;DHT22;2548;52.050;11.036;2023-12-20T02:41:44;6.20;99.90
5059;DHT22;2548;52.050;11.036;2023-12-20T02:44:17;6.20;99.90
5059;DHT22;2548;52.050;11.036;2023-12-20T02:46:45;6.30;99.90
5059;DHT22;2548;52.050;11.036;2023-12-20T02:49:12;6.30;99.90
5059;DHT22;2548;52.050;11.036;2023-12-20T02:51:40;6.20;99.90
5059;DHT22;2548;52.050;11.036;2023-12-20T02:54:11;6.30;99.90
5059;DHT22;2548;52.050;11.036;2023-12-20T02:56:39;6.20;99.90
5059;DHT22;2548;52.050;11.036;2023-12-20T02:59:18;6.30;99.90
5059;DHT22;2548;52.050;11.036;2023-12-20T03:01:48;6.30;99.90
5059;DHT22;2548;52.050;11.036;2023-12-20T03:04:17;6.30;99.90
5059;DHT22;2548;52.050;11.036;2023-12-20T03:06:45;6.30;99.90
5059;DHT22;2548;52.050;11.036;2023-12-20T03:09:14;6.30;99.90
5059;DHT22;2548;52.050;11.036;2023-12-20T03:11:41;6.30;99.90
5059;DHT22;2548;52.050;11.036;2023-12-20T03:14:17;6.30;99.90
5059;DHT22;2548;52.050;11.036;2023-12-20T03:16:49;6.30;99.90
5059;DHT22;2548;52.050;11.036;2023-12-20T03:19:17;6.20;99.90
5059;DHT22;2548;52.050;11.036;2023-12-20T03:21:46;6.20;99.90
5059;DHT22;2548;52.050;11.036;2023-12-20T03:24:17;6.10;99.90
5059;DHT22;2548;52.050;11.036;2023-12-20T03:26:47;6.00;99.90
5059;DHT22;2548;52.050;11.036;2023-12-20T03:29:14;6.00;99.90
5059;DHT22;2548;52.050;11.036;2023-12-20T03:31:42;5.90;99.90
5059;DHT22;2548;52.050;11.036;2023-12-20T03:34:19;5.80;99.90
5059;DHT22;2548;52.050;11.036;2023-12-20T03:37:04;5.80;99.90
5059;DHT22;2548;52.050;11.036;2023-12-20T03:39:32;5.70;99.90
5059;DHT22;2548;52.050;11.036;2023-12-20T03:42:00;5.70;99.90
5059;DHT22;2548;52.050;11.036;2023-12-20T03:44:32;5.70;99.90
5059;DHT22;2548;52.050;11.036;2023-12-20T03:47:09;5.60;99.90
5059;DHT22;2548;52.050;11.036;2023-12-20T03:49:39;5.60;99.90
5059;DHT22;2548;52.050;11.036;2023-12-20T03:52:07;5.50;99.90
5059;DHT22;2548;52.050;11.036;2023-12-20T03:54:36;5.50;99.90
5059;DHT22;2548;52.050;11.036;2023-12-20T03:57:06;5.60;99.90
5059;DHT22;2548;52.050;11.036;2023-12-20T03:59:36;5.50;99.90
5059;DHT22;2548;52.050;11.036;2023-12-20T04:02:04;5.50;99.90
5059;DHT22;2548;52.050;11.036;2023-12-20T04:04:31;5.40;99.90
5059;DHT22;2548;52.050;11.036;2023-12-20T04:06:59;5.40;99.90
5059;DHT22;2548;52.050;11.036;2023-12-20T04:09:32;5.30;99.90
5059;DHT22;2548;52.050;11.036;2023-12-20T04:12:10;5.30;99.90
5059;DHT22;2548;52.050;11.036;2023-12-20T04:14:37;5.30;99.90
5059;DHT22;2548;52.050;11.036;2023-12-20T04:17:18;5.30;99.90
5059;DHT22;2548;52.050;11.036;2023-12-20T04:19:48;5.30;99.90
5059;DHT22;2548;52.050;11.036;2023-12-20T04:22:23;5.30;99.90
5059;DHT22;2548;52.050;11.036;2023-12-20T04:24:54;5.20;99.90
5059;DHT22;2548;52.050;11.036;2023-12-20T04:27:30;5.20;99.90
5059;DHT22;2548;52.050;11.036;2023-12-20T04:29:58;5.20;99.90
5059;DHT22;2548;52.050;11.036;2023-12-20T04:32:25;5.20;99.90
5059;DHT22;2548;52.050;11.036;2023-12-20T04:34:53;5.20;99.90
5059;DHT22;2548;52.050;11.036;2023-12-20T04:37:25;5.10;99.90
5059;DHT22;2548;52.050;11.036;2023-12-20T04:39:55;5.20;99.90
5059;DHT22;2548;52.050;11.036;2023-12-20T04:42:23;5.10;99.90
5059;DHT22;2548;52.050;11.036;2023-12-20T04:44:54;5.10;99.90
5059;DHT22;2548;52.050;11.036;2023-12-20T04:47:21;5.00;99.90
5059;DHT22;2548;52.050;11.036;2023-12-20T04:49:52;5.00;99.90
5059;DHT22;2548;52.050;11.036;2023-12-20T04:52:22;4.90;99.90
5059;DHT22;2548;52.050;11.036;2023-12-20T04:54:49;4.80;99.90
5059;DHT22;2548;52.050;11.036;2023-12-20T04:57:22;4.80;99.90
5059;DHT22;2548;52.050;11.036;2023-12-20T04:59:54;4.80;99.90
5059;DHT22;2548;52.050;11.036;2023-12-20T05:02:25;4.80;99.90
5059;DHT22;2548;52.050;11.036;2023-12-20T05:04:52;4.90;99.90
5059;DHT22;2548;52.050;11.036;2023-12-20T05:07:23;5.00;99.90
5059;DHT22;2548;52.050;11.036;2023-12-20T05:09:50;5.00;99.90
5059;DHT22;2548;52.050;11.036;2023-12-20T05:12:18;5.00;99.90
5059;DHT22;2548;52.050;11.036;2023-12-20T05:14:46;5.00;99.90
5059;DHT22;2548;52.050;11.036;2023-12-20T05:17:15;5.10;99.90
5059;DHT22;2548;52.050;11.036;2023-12-20T05:19:42;5.10;99.90
5059;DHT22;2548;52.050;11.036;2023-12-20T05:22:10;5.10;99.90
5059;DHT22;2548;52.050;11.036;2023-12-20T05:24:37;5.10;99.90
5059;DHT22;2548;52.050;11.036;2023-12-20T05:27:04;5.10;99.90
5059;DHT22;2548;52.050;11.036;2023-12-20T05:29:32;5.10;99.90
5059;DHT22;2548;52.050;11.036;2023-12-20T05:32:00;5.10;99.90
5059;DHT22;2548;52.050;11.036;2023-12-20T05:34:28;5.20;99.90
5059;DHT22;2548;52.050;11.036;2023-12-20T05:36:56;5.10;99.90
5059;DHT22;2548;52.050;11.036;2023-12-20T05:39:23;5.20;99.90
5059;DHT22;2548;52.050;11.036;2023-12-20T05:41:51;5.30;99.90
5059;DHT22;2548;52.050;11.036;2023-12-20T05:44:21;5.30;99.90
5059;DHT22;2548;52.050;11.036;2023-12-20T05:46:48;5.30;99.90
5059;DHT22;2548;52.050;11.036;2023-12-20T05:49:19;5.30;99.90
5059;DHT22;2548;52.050;11.036;2023-12-20T05:51:55;5.40;99.90
5059;DHT22;2548;52.050;11.036;2023-12-20T05:54:23;5.30;99.90
5059;DHT22;2548;52.050;11.036;2023-12-20T05:56:50;5.30;99.90
5059;DHT22;2548;52.050;11.036;2023-12-20T05:59:18;5.30;99.90
5059;DHT22;2548;52.050;11.036;2023-12-20T06:01:45;5.40;99.90
5059;DHT22;2548;52.050;11.036;2023-12-20T06:04:13;5.40;99.90
5059;DHT22;2548;52.050;11.036;2023-12-20T06:06:41;5.40;99.90
5059;DHT22;2548;52.050;11.036;2023-12-20T06:09:12;5.50;99.90
5059;DHT22;2548;52.050;11.036;2023-12-20T06:11:51;5.50;99.90
5059;DHT22;2548;52.050;11.036;2023-12-20T06:14:19;5.50;99.90
5059;DHT22;2548;52.050;11.036;2023-12-20T06:16:46;5.50;99.90
5059;DHT22;2548;52.050;11.036;2023-12-20T06:19:17;5.60;99.90
5059;DHT22;2548;52.050;11.036;2023-12-20T06:21:44;5.60;99.90
5059;DHT22;2548;52.050;11.036;2023-12-20T06:24:13;5.60;99.90
5059;DHT22;2548;52.050;11.036;2023-12-20T06:26:40;5.60;99.90
5059;DHT22;2548;52.050;11.036;2023-12-20T06:29:08;5.60;99.90
5059;DHT22;2548;52.050;11.036;2023-12-20T06:31:36;5.60;99.90
5059;DHT22;2548;52.050;11.036;2023-12-20T06:34:03;5.60;99.90
5059;DHT22;2548;52.050;11.036;2023-12-20T06:36:31;5.60;99.90
5059;DHT22;2548;52.050;11.036;2023-12-20T06:38:58;5.60;99.90
5059;DHT22;2548;52.050;11.036;2023-12-20T06:41:30;5.60;99.90
5059;DHT22;2548;52.050;11.036;2023-12-20T06:44:03;5.60;99.90
5059;DHT22;2548;52.050;11.036;2023-12-20T06:46:31;5.60;99.90
5059;DHT22;2548;52.050;11.036;2023-12-20T06:48:58;5.60;99.90
5059;DHT22;2548;52.050;11.036;2023-12-20T06:51:28;5.60;99.90
5059;DHT22;2548;52.050;11.036;2023-12-20T06:53:57;5.60;99.90
5059;DHT22;2548;52.050;11.036;2023-12-20T06:56:25;5.60;99.90
5059;DHT22;2548;52.050;11.036;2023-12-20T06:58:53;5.60;99.90
5059;DHT22;2548;52.050;11.036;2023-12-20T07:01:30;5.60;99.90
5059;DHT22;2548;52.050;11.036;2023-12-20T07:04:04;5.60;99.90
5059;DHT22;2548;52.050;11.036;2023-12-20T07:06:31;5.70;99.90
5059;DHT22;2548;52.050;11.036;2023-12-20T07:08:58;5.70;99.90
5059;DHT22;2548;52.050;11.036;2023-12-20T07:11:26;5.70;99.90
5059;DHT22;2548;52.050;11.036;2023-12-20T07:13:55;5.80;99.90
5059;DHT22;2548;52.050;11.036;2023-12-20T07:16:22;5.80;99.90
5059;DHT22;2548;52.050;11.036;2023-12-20T07:18:51;5.80;99.90
5059;DHT22;2548;52.050;11.036;2023-12-20T07:21:18;5.80;99.90
5059;DHT22;2548;52.050;11.036;2023-12-20T07:23:46;5.70;99.90
5059;DHT22;2548;52.050;11.036;2023-12-20T07:26:13;5.70;99.90
5059;DHT22;2548;52.050;11.036;2023-12-20T07:28:46;5.60;99.90
5059;DHT22;2548;52.050;11.036;2023-12-20T07:31:16;5.50;99.90
5059;DHT22;2548;52.050;11.036;2023-12-20T07:33:46;5.50;99.90
5059;DHT22;2548;52.050;11.036;2023-12-20T07:36:13;5.50;99.90
5059;DHT22;2548;52.050;11.036;2023-12-20T07:38:44;5.50;99.90
5059;DHT22;2548;52.050;11.036;2023-12-20T07:41:12;5.50;99.90
5059;DHT22;2548;52.050;11.036;2023-12-20T07:43:39;5.60;99.90
5059;DHT22;2548;52.050;11.036;2023-12-20T07:46:07;5.60;99.90
5059;DHT22;2548;52.050;11.036;2023-12-20T07:48:39;5.60;99.90
5059;DHT22;2548;52.050;11.036;2023-12-20T07:51:07;5.70;99.90
5059;DHT22;2548;52.050;11.036;2023-12-20T07:53:41;5.70;99.90
5059;DHT22;2548;52.050;11.036;2023-12-20T07:56:15;5.70;99.90
5059;DHT22;2548;52.050;11.036;2023-12-20T07:58:43;5.70;99.90
5059;DHT22;2548;52.050;11.036;2023-12-20T08:01:11;5.70;99.90
5059;DHT22;2548;52.050;11.036;2023-12-20T08:03:40;5.70;99.90
5059;DHT22;2548;52.050;11.036;2023-12-20T08:06:13;5.70;99.90
5059;DHT22;2548;52.050;11.036;2023-12-20T08:08:40;5.70;99.90
5059;DHT22;2548;52.050;11.036;2023-12-20T08:11:11;5.60;99.90
5059;DHT22;2548;52.050;11.036;2023-12-20T08:13:38;5.60;99.90
5059;DHT22;2548;52.050;11.036;2023-12-20T08:16:06;5.60;99.90
5059;DHT22;2548;52.050;11.036;2023-12-20T08:18:34;5.70;99.90
5059;DHT22;2548;52.050;11.036;2023-12-20T08:21:03;5.70;99.90
5059;DHT22;2548;52.050;11.036;2023-12-20T08:23:34;5.80;99.90
5059;DHT22;2548;52.050;11.036;2023-12-20T08:26:04;5.80;99.90
5059;DHT22;2548;52.050;11.036;2023-12-20T08:28:32;5.80;99.90
5059;DHT22;2548;52.050;11.036;2023-12-20T08:30:59;5.80;99.90
5059;DHT22;2548;52.050;11.036;2023-12-20T08:33:34;5.80;99.90
5059;DHT22;2548;52.050;11.036;2023-12-20T08:36:04;5.90;99.90
5059;DHT22;2548;52.050;11.036;2023-12-20T08:38:32;5.90;99.90
5059;DHT22;2548;52.050;11.036;2023-12-20T08:41:03;5.90;99.90
5059;DHT22;2548;52.050;11.036;2023-12-20T08:43:31;5.90;99.90
5059;DHT22;2548;52.050;11.036;2023-12-20T08:45:59;5.90;99.90
5059;DHT22;2548;52.050;11.036;2023-12-20T08:48:26;5.90;99.90
5059;DHT22;2548;52.050;11.036;2023-12-20T08:50:53;6.00;99.90
5059;DHT22;2548;52.050;11.036;2023-12-20T08:53:25;6.00;99.90
5059;DHT22;2548;52.050;11.036;2023-12-20T08:55:53;6.00;99.90
5059;DHT22;2548;52.050;11.036;2023-12-20T08:58:20;6.10;99.90
5059;DHT22;2548;52.050;11.036;2023-12-20T09:00:50;6.10;99.90
5059;DHT22;2548;52.050;11.036;2023-12-20T09:03:21;6.20;99.90
5059;DHT22;2548;52.050;11.036;2023-12-20T09:05:48;6.30;99.90
5059;DHT22;2548;52.050;11.036;2023-12-20T09:08:19;6.40;99.90
5059;DHT22;2548;52.050;11.036;2023-12-20T09:10:50;6.50;99.90
5059;DHT22;2548;52.050;11.036;2023-12-20T09:13:18;6.60;99.90
5059;DHT22;2548;52.050;11.036;2023-12-20T09:15:46;6.60;99.90
5059;DHT22;2548;52.050;11.036;2023-12-20T09:18:14;6.60;99.90
5059;DHT22;2548;52.050;11.036;2023-12-20T09:20:41;6.60;99.90
5059;DHT22;2548;52.050;11.036;2023-12-20T09:23:09;6.70;99.90
5059;DHT22;2548;52.050;11.036;2023-12-20T09:25:39;6.70;99.90
5059;DHT22;2548;52.050;11.036;2023-12-20T09:28:08;6.70;99.90
5059;DHT22;2548;52.050;11.036;2023-12-20T09:30:36;6.80;99.90
5059;DHT22;2548;52.050;11.036;2023-12-20T09:33:05;6.80;99.90
5059;DHT22;2548;52.050;11.036;2023-12-20T09:35:43;6.90;99.90
5059;DHT22;2548;52.050;11.036;2023-12-20T09:38:17;7.00;99.90
5059;DHT22;2548;52.050;11.036;2023-12-20T09:40:51;7.00;99.90
5059;DHT22;2548;52.050;11.036;2023-12-20T09:43:24;7.00;99.90
5059;DHT22;2548;52.050;11.036;2023-12-20T09:46:00;7.00;99.90
5059;DHT22;2548;52.050;11.036;2023-12-20T09:48:33;7.10;99.90
5059;DHT22;2548;52.050;11.036;2023-12-20T09:51:00;7.10;99.90
5059;DHT22;2548;52.050;11.036;2023-12-20T09:53:31;7.10;99.90
5059;DHT22;2548;52.050;11.036;2023-12-20T09:56:02;7.10;99.90
5059;DHT22;2548;52.050;11.036;2023-12-20T09:58:31;7.10;99.90
5059;DHT22;2548;52.050;11.036;2023-12-20T10:00:59;7.10;99.90
5059;DHT22;2548;52.050;11.036;2023-12-20T10:03:36;7.10;99.90
5059;DHT22;2548;52.050;11.036;2023-12-20T10:06:07;7.00;99.90
5059;DHT22;2548;52.050;11.036;2023-12-20T10:08:34;7.00;99.90
5059;DHT22;2548;52.050;11.036;2023-12-20T10:11:05;7.00;99.90
5059;DHT22;2548;52.050;11.036;2023-12-20T10:13:34;7.00;99.90
5059;DHT22;2548;52.050;11.036;2023-12-20T10:16:03;7.00;99.90
5059;DHT22;2548;52.050;11.036;2023-12-20T10:18:31;7.00;99.90
5059;DHT22;2548;52.050;11.036;2023-12-20T10:20:58;7.00;99.90
5059;DHT22;2548;52.050;11.036;2023-12-20T10:23:26;7.10;99.90
5059;DHT22;2548;52.050;11.036;2023-12-20T10:25:59;7.10;99.90
5059;DHT22;2548;52.050;11.036;2023-12-20T10:28:34;7.10;99.90
5059;DHT22;2548;52.050;11.036;2023-12-20T10:31:01;7.10;99.90
5059;DHT22;2548;52.050;11.036;2023-12-20T10:33:30;7.10;99.90
5059;DHT22;2548;52.050;11.036;2023-12-20T10:35:58;7.10;99.90
5059;DHT22;2548;52.050;11.036;2023-12-20T10:38:26;7.30;99.90
5059;DHT22;2548;52.050;11.036;2023-12-20T10:40:57;7.30;99.90
5059;DHT22;2548;52.050;11.036;2023-12-20T10:43:26;7.40;99.90
5059;DHT22;2548;52.050;11.036;2023-12-20T10:46:05;7.50;99.90
5059;DHT22;2548;52.050;11.036;2023-12-20T10:48:42;7.40;99.90
5059;DHT22;2548;52.050;11.036;2023-12-20T10:51:14;7.40;99.90
5059;DHT22;2548;52.050;11.036;2023-12-20T10:53:51;7.50;99.90
5059;DHT22;2548;52.050;11.036;2023-12-20T10:56:19;7.60;99.90
5059;DHT22;2548;52.050;11.036;2023-12-20T10:58:50;7.70;99.90
5059;DHT22;2548;52.050;11.036;2023-12-20T11:01:22;7.60;99.90
5059;DHT22;2548;52.050;11.036;2023-12-20T11:03:51;7.70;99.90
5059;DHT22;2548;52.050;11.036;2023-12-20T11:06:33;7.70;99.90
5059;DHT22;2548;52.050;11.036;2023-12-20T11:09:13;7.60;99.90
5059;DHT22;2548;52.050;11.036;2023-12-20T11:11:58;7.60;99.90
5059;DHT22;2548;52.050;11.036;2023-12-20T11:14:32;7.40;99.90
5059;DHT22;2548;52.050;11.036;2023-12-20T11:17:15;7.30;99.90
5059;DHT22;2548;52.050;11.036;2023-12-20T11:20:16;7.30;99.90
5059;DHT22;2548;52.050;11.036;2023-12-20T11:22:59;7.30;99.90
5059;DHT22;2548;52.050;11.036;2023-12-20T11:25:29;7.30;99.90
5059;DHT22;2548;52.050;11.036;2023-12-20T11:28:15;7.20;99.90
5059;DHT22;2548;52.050;11.036;2023-12-20T11:30:48;7.20;99.90
5059;DHT22;2548;52.050;11.036;2023-12-20T11:33:27;7.20;99.90
5059;DHT22;2548;52.050;11.036;2023-12-20T11:35:57;7.10;99.90
5059;DHT22;2548;52.050;11.036;2023-12-20T11:38:36;7.10;99.90
5059;DHT22;2548;52.050;11.036;2023-12-20T11:41:06;7.10;99.90
5059;DHT22;2548;52.050;11.036;2023-12-20T11:43:39;7.10;99.90
5059;DHT22;2548;52.050;11.036;2023-12-20T11:46:13;7.10;99.90
5059;DHT22;2548;52.050;11.036;2023-12-20T11:48:41;7.20;99.90
5059;DHT22;2548;52.050;11.036;2023-12-20T11:51:14;7.20;99.90
5059;DHT22;2548;52.050;11.036;2023-12-20T11:53:51;7.20;99.90
5059;DHT22;2548;52.050;11.036;2023-12-20T11:56:19;7.20;99.90
5059;DHT22;2548;52.050;11.036;2023-12-20T11:58:55;7.20;99.90
5059;DHT22;2548;52.050;11.036;2023-12-20T12:01:24;7.20;99.90
5059;DHT22;2548;52.050;11.036;2023-12-20T12:04:06;7.20;99.90
5059;DHT22;2548;52.050;11.036;2023-12-20T12:06:34;7.20;99.90
5059;DHT22;2548;52.050;11.036;2023-12-20T12:09:04;7.20;99.90
5059;DHT22;2548;52.050;11.036;2023-12-20T12:11:46;7.10;99.90
5059;DHT22;2548;52.050;11.036;2023-12-20T12:14:14;7.10;99.90
5059;DHT22;2548;52.050;11.036;2023-12-20T12:16:47;7.10;99.90
5059;DHT22;2548;52.050;11.036;2023-12-20T12:19:21;7.00;99.90
5059;DHT22;2548;52.050;11.036;2023-12-20T12:21:49;7.10;99.90
5059;DHT22;2548;52.050;11.036;2023-12-20T12:24:23;7.10;99.90
5059;DHT22;2548;52.050;11.036;2023-12-20T12:26:57;7.00;99.90
5059;DHT22;2548;52.050;11.036;2023-12-20T12:29:27;6.90;99.90
5059;DHT22;2548;52.050;11.036;2023-12-20T12:31:57;6.90;99.90
5059;DHT22;2548;52.050;11.036;2023-12-20T12:34:28;6.80;99.90
5059;DHT22;2548;52.050;11.036;2023-12-20T12:36:58;6.80;99.90
5059;DHT22;2548;52.050;11.036;2023-12-20T12:39:26;6.70;99.90
5059;DHT22;2548;52.050;11.036;2023-12-20T12:41:56;6.70;99.90
5059;DHT22;2548;52.050;11.036;2023-12-20T12:44:27;6.70;99.90
5059;DHT22;2548;52.050;11.036;2023-12-20T12:46:54;6.60;99.90
5059;DHT22;2548;52.050;11.036;2023-12-20T12:49:23;6.60;99.90
5059;DHT22;2548;52.050;11.036;2023-12-20T12:51:54;6.50;99.90
5059;DHT22;2548;52.050;11.036;2023-12-20T12:54:24;6.50;99.90
5059;DHT22;2548;52.050;11.036;2023-12-20T12:56:51;6.50;99.90
5059;DHT22;2548;52.050;11.036;2023-12-20T12:59:22;6.50;99.90
5059;DHT22;2548;52.050;11.036;2023-12-20T13:01:49;6.50;99.90
5059;DHT22;2548;52.050;11.036;2023-12-20T13:04:23;6.40;99.90
5059;DHT22;2548;52.050;11.036;2023-12-20T13:06:52;6.40;99.90
5059;DHT22;2548;52.050;11.036;2023-12-20T13:09:28;6.40;99.90
5059;DHT22;2548;52.050;11.036;2023-12-20T13:11:55;6.30;99.90
5059;DHT22;2548;52.050;11.036;2023-12-20T13:14:26;6.30;99.90
5059;DHT22;2548;52.050;11.036;2023-12-20T13:16:54;6.30;99.90
5059;DHT22;2548;52.050;11.036;2023-12-20T13:19:25;6.30;99.90
5059;DHT22;2548;52.050;11.036;2023-12-20T13:21:55;6.30;99.90
5059;DHT22;2548;52.050;11.036;2023-12-20T13:24:27;6.20;99.90
5059;DHT22;2548;52.050;11.036;2023-12-20T13:26:58;6.10;99.90
5059;DHT22;2548;52.050;11.036;2023-12-20T13:29:31;6.00;99.90
5059;DHT22;2548;52.050;11.036;2023-12-20T13:32:01;5.80;99.90
5059;DHT22;2548;52.050;11.036;2023-12-20T13:34:29;5.70;99.90
5059;DHT22;2548;52.050;11.036;2023-12-20T13:36:57;5.70;99.90
5059;DHT22;2548;52.050;11.036;2023-12-20T13:39:34;5.70;99.90
5059;DHT22;2548;52.050;11.036;2023-12-20T13:42:07;5.70;99.90
5059;DHT22;2548;52.050;11.036;2023-12-20T13:44:35;5.70;99.90
5059;DHT22;2548;52.050;11.036;2023-12-20T13:47:02;5.60;99.90
5059;DHT22;2548;52.050;11.036;2023-12-20T13:49:33;5.70;99.90
5059;DHT22;2548;52.050;11.036;2023-12-20T13:52:03;5.60;99.90
5059;DHT22;2548;52.050;11.036;2023-12-20T13:54:30;5.60;99.90
5059;DHT22;2548;52.050;11.036;2023-12-20T13:56:58;5.60;99.90
5059;DHT22;2548;52.050;11.036;2023-12-20T13:59:25;5.60;99.90
5059;DHT22;2548;52.050;11.036;2023-12-20T14:01:53;5.60;99.90
5059;DHT22;2548;52.050;11.036;2023-12-20T14:04:26;5.70;99.90
5059;DHT22;2548;52.050;11.036;2023-12-20T14:06:53;5.70;99.90
5059;DHT22;2548;52.050;11.036;2023-12-20T14:09:24;5.70;99.90
5059;DHT22;2548;52.050;11.036;2023-12-20T14:11:52;5.70;99.90
5059;DHT22;2548;52.050;11.036;2023-12-20T14:14:32;5.70;99.90
5059;DHT22;2548;52.050;11.036;2023-12-20T14:17:09;5.60;99.90
5059;DHT22;2548;52.050;11.036;2023-12-20T14:19:36;5.70;99.90
5059;DHT22;2548;52.050;11.036;2023-12-20T14:22:06;5.70;99.90
5059;DHT22;2548;52.050;11.036;2023-12-20T14:24:35;5.70;99.90
5059;DHT22;2548;52.050;11.036;2023-12-20T14:27:03;5.60;99.90
5059;DHT22;2548;52.050;11.036;2023-12-20T14:29:30;5.70;99.90
5059;DHT22;2548;52.050;11.036;2023-12-20T14:32:00;5.70;99.90
5059;DHT22;2548;52.050;11.036;2023-12-20T14:34:32;5.60;99.90
5059;DHT22;2548;52.050;11.036;2023-12-20T14:37:02;5.60;99.90
5059;DHT22;2548;52.050;11.036;2023-12-20T14:39:30;5.60;99.90
5059;DHT22;2548;52.050;11.036;2023-12-20T14:42:01;5.60;99.90
5059;DHT22;2548;52.050;11.036;2023-12-20T14:44:34;5.50;99.90
5059;DHT22;2548;52.050;11.036;2023-12-20T14:47:05;5.50;99.90
5059;DHT22;2548;52.050;11.036;2023-12-20T14:49:35;5.50;99.90
5059;DHT22;2548;52.050;11.036;2023-12-20T14:52:03;5.50;99.90
5059;DHT22;2548;52.050;11.036;2023-12-20T14:54:31;5.50;99.90
5059;DHT22;2548;52.050;11.036;2023-12-20T14:57:01;5.50;99.90
5059;DHT22;2548;52.050;11.036;2023-12-20T14:59:28;5.60;99.90
5059;DHT22;2548;52.050;11.036;2023-12-20T15:01:56;5.50;99.90
5059;DHT22;2548;52.050;11.036;2023-12-20T15:04:23;5.50;99.90
5059;DHT22;2548;52.050;11.036;2023-12-20T15:06:55;5.50;99.90
5059;DHT22;2548;52.050;11.036;2023-12-20T15:09:29;5.50;99.90
5059;DHT22;2548;52.050;11.036;2023-12-20T15:11:57;5.50;99.90
5059;DHT22;2548;52.050;11.036;2023-12-20T15:14:28;5.50;99.90
5059;DHT22;2548;52.050;11.036;2023-12-20T15:16:56;5.50;99.90
5059;DHT22;2548;52.050;11.036;2023-12-20T15:19:23;5.50;99.90
5059;DHT22;2548;52.050;11.036;2023-12-20T15:21:51;5.50;99.90
5059;DHT22;2548;52.050;11.036;2023-12-20T15:24:18;5.60;99.90
5059;DHT22;2548;52.050;11.036;2023-12-20T15:26:53;5.60;99.90
5059;DHT22;2548;52.050;11.036;2023-12-20T15:29:21;5.60;99.90
5059;DHT22;2548;52.050;11.036;2023-12-20T15:31:50;5.60;99.90
5059;DHT22;2548;52.050;11.036;2023-12-20T15:34:18;5.60;99.90
5059;DHT22;2548;52.050;11.036;2023-12-20T15:36:46;5.60;99.90
5059;DHT22;2548;52.050;11.036;2023-12-20T15:39:14;5.60;99.90
5059;DHT22;2548;52.050;11.036;2023-12-20T15:41:41;5.60;99.90
5059;DHT22;2548;52.050;11.036;2023-12-20T15:44:09;5.60;99.90
5059;DHT22;2548;52.050;11.036;2023-12-20T15:46:36;5.60;99.90
5059;DHT22;2548;52.050;11.036;2023-12-20T15:49:06;5.60;99.90
5059;DHT22;2548;52.050;11.036;2023-12-20T15:51:33;5.60;99.90
5059;DHT22;2548;52.050;11.036;2023-12-20T15:54:01;5.60;99.90
5059;DHT22;2548;52.050;11.036;2023-12-20T15:56:32;5.50;99.90
5059;DHT22;2548;52.050;11.036;2023-12-20T15:58:59;5.50;99.90
5059;DHT22;2548;52.050;11.036;2023-12-20T16:01:27;5.60;99.90
5059;DHT22;2548;52.050;11.036;2023-12-20T16:03:56;5.50;99.90
5059;DHT22;2548;52.050;11.036;2023-12-20T16:06:25;5.50;99.90
5059;DHT22;2548;52.050;11.036;2023-12-20T16:08:53;5.50;99.90
5059;DHT22;2548;52.050;11.036;2023-12-20T16:11:21;5.50;99.90
5059;DHT22;2548;52.050;11.036;2023-12-20T16:13:48;5.50;99.90
5059;DHT22;2548;52.050;11.036;2023-12-20T16:16:17;5.50;99.90
5059;DHT22;2548;52.050;11.036;2023-12-20T16:18:44;5.60;99.90
5059;DHT22;2548;52.050;11.036;2023-12-20T16:21:12;5.60;99.90